Time;durP1;ratioP1;P1;durP2;ratioP2;P2;SDS_P1;SDS_P2;PMS_P1;PMS_P2;Temp;Humidity;BMP_temperature;BMP_pressure;BME280_temperature;BME280_humidity;BME280_pressure;Samples;Min_cycle;Max_cycle;Signal;HPM_P1;HPM_P2
2023/04/29 00:00:35;;;;;;;;;;;;;;;;;;2204373;59;3009;-22
2023/04/29 00:03:05;;;;;;;;;;;;;;;;;;2207698;59;2225;-22
2023/04/29 00:05:36;;;;;;;;;;;;;;;;;;2207313;67;2547;-22
2023/04/29 00:08:06;;;;;;;;;;;;;;;;;;2195396;67;3045;-22
2023/04/29 00:10:36;;;;;;;;;;;;;;;;;;2195217;66;2513;-22
2023/04/29 00:13:07;;;;;;;;;;;;;;;;;;2195622;59;3274;-22
2023/04/29 00:15:37;;;;;;;;;;;;;;;;;;2195420;66;2045;-22
2023/04/29 00:18:08;;;;;;;;;;;;;;;;;;2207662;67;2052;-22
2023/04/29 00:20:38;;;;;;;;;;;;;;;;;;2196337;59;2903;-22
2023/04/29 00:23:09;;;;;;;;;;;;;;;;;;2195661;67;2811;-22
2023/04/29 00:25:39;;;;;;;;;;;;;;;;;;2196074;59;2738;-22
2023/04/29 00:28:09;;;;;;;;;;;;;;;;;;2196450;66;2254;-22
2023/04/29 00:30:39;;;;;;;;;;;;;;;;;;2197057;67;2253;-22
2023/04/29 00:33:10;;;;;;;;;;;;;;;;;;2196124;59;2259;-22
2023/04/29 00:35:40;;;;;;;;;;;;;;;;;;2209295;67;3026;-22
2023/04/29 00:38:10;;;;;;;;;;;;;;;;;;2196395;67;3293;-22
2023/04/29 00:40:42;;;;;;;;;;;;;;;;;;2196824;67;2727;-22
2023/04/29 00:43:12;;;;;;;;;;;;;;;;;;2196415;67;2709;-22
2023/04/29 00:45:44;;;;;;;;;;;;;;;;;;2196237;67;2258;-22
2023/04/29 00:48:15;;;;;;;;;;;;;;;;;;2196025;60;2034;-22
2023/04/29 00:50:45;;;;;;;;;;;;;;;;;;2210098;59;2147;-22
2023/04/29 00:53:16;;;;;;;;;;;;;;;;;;2198677;59;2444;-23
2023/04/29 00:55:47;;;;;;;;;;;;;;;;;;2210734;59;3031;-22
2023/04/29 00:58:18;;;;;;;;;;;;;;;;;;2197198;66;2285;-22
2023/04/29 01:00:49;;;;;;;;;;;;;;;;;;2209348;59;2094;-23
2023/04/29 01:03:19;;;;;;;;;;;;;;;;;;2209961;59;2781;-22
2023/04/29 01:05:56;;;;;;;;;;;;;;;;;;2209620;66;2587;-23
2023/04/29 01:08:36;;;;;;;;;;;;;;;;;;2197628;67;2660;-22
2023/04/29 01:11:08;;;;;;;;;;;;;;;;;;2197432;67;3195;-22
2023/04/29 01:13:38;;;;;;;;;;;;;;;;;;2195381;59;3359;-22
2023/04/29 01:16:20;;;;;;;;;;;;;;;;;;2196918;67;2198;-22
2023/04/29 01:18:54;;;;;;;;;;;;;;;;;;2197438;59;2464;-22
2023/04/29 01:21:24;;;;;;;;;;;;;;;;;;2208847;66;2164;-22
2023/04/29 01:23:55;;;;;;;;;;;;;;;;;;2196352;67;2401;-22
2023/04/29 01:26:26;;;;;;;;;;;;;;;;;;2209496;59;2837;-22
2023/04/29 01:29:18;;;;;;;;;;;;;;;;;;2196822;67;2593;-22
2023/04/29 01:31:53;;;;;;;;;;;;;;;;;;2198084;66;2734;-22
2023/04/29 01:34:33;;;;;;;;;;;;;;;;;;2196652;59;3087;-22
2023/04/29 01:37:13;;;;;;;;;;;;;;;;;;2196418;67;3254;-22
2023/04/29 01:39:56;;;;;;;;;;;;;;;;;;2206158;67;2950;-22
2023/04/29 01:42:33;;;;;;;;;;;;;;;;;;2196711;67;2253;-22
2023/04/29 01:45:09;;;;;;;;;;;;;;;;;;2196928;66;3141;-22
2023/04/29 01:47:40;;;;;;;;;;;;;;;;;;2196534;67;2848;-22
2023/04/29 01:50:10;;;;;;;;;;;;;;;;;;2196845;66;2775;-22
2023/04/29 01:52:40;;;;;;;;;;;;;;;;;;2197794;59;3144;-22
2023/04/29 01:55:11;;;;;;;;;;;;;;;;;;2197467;59;2141;-22
2023/04/29 01:57:41;;;;;;;;;;;;;;;;;;2196492;66;2590;-22
2023/04/29 02:00:12;;;;;;;;;;;;;;;;;;2196454;66;2749;-22
2023/04/29 02:02:42;;;;;;;;;;;;;;;;;;2196986;59;2635;-22
2023/04/29 02:05:12;;;;;;;;;;;;;;;;;;2196670;66;2058;-22
2023/04/29 02:07:43;;;;;;;;;;;;;;;;;;2196653;67;3124;-22
2023/04/29 02:10:13;;;;;;;;;;;;;;;;;;2196116;67;2267;-22
2023/04/29 02:12:45;;;;;;;;;;;;;;;;;;2196007;67;3459;-22
2023/04/29 02:15:16;;;;;;;;;;;;;;;;;;2196366;66;3221;-22
2023/04/29 02:17:46;;;;;;;;;;;;;;;;;;2196539;67;3282;-22
2023/04/29 02:20:16;;;;;;;;;;;;;;;;;;2197080;59;2143;-22
2023/04/29 02:22:47;;;;;;;;;;;;;;;;;;2196510;67;2800;-22
2023/04/29 02:25:17;;;;;;;;;;;;;;;;;;2196954;59;2747;-22
2023/04/29 02:27:47;;;;;;;;;;;;;;;;;;2196976;67;2722;-23
2023/04/29 02:30:17;;;;;;;;;;;;;;;;;;2196828;67;2965;-24
2023/04/29 02:32:48;;;;;;;;;;;;;;;;;;2196930;59;3318;-23
2023/04/29 02:35:18;;;;;;;;;;;;;;;;;;2196247;66;2963;-24
2023/04/29 02:37:48;;;;;;;;;;;;;;;;;;2196552;67;2766;-23
2023/04/29 02:40:18;;;;;;;;;;;;;;;;;;2196297;67;2342;-23
2023/04/29 02:42:49;;;;;;;;;;;;;;;;;;2208837;67;3039;-24
2023/04/29 02:45:19;;;;;;;;;;;;;;;;;;2207907;66;2216;-23
2023/04/29 02:47:49;;;;;;;;;;;;;;;;;;2196027;67;3148;-24
2023/04/29 02:50:19;;;;;;;;;;;;;;;;;;2196868;66;2692;-23
2023/04/29 02:52:50;;;;;;;;;;;;;;;;;;2207905;67;2849;-23
2023/04/29 02:55:20;;;;;;;;;;;;;;;;;;2196646;59;2771;-23
2023/04/29 02:57:51;;;;;;;;;;;;;;;;;;2208211;67;3082;-23
2023/04/29 03:00:22;;;;;;;;;;;;;;;;;;2196955;66;2547;-22
2023/04/29 03:02:52;;;;;;;;;;;;;;;;;;2197177;59;2832;-22
2023/04/29 03:05:23;;;;;;;;;;;;;;;;;;2209241;66;2751;-22
2023/04/29 03:07:53;;;;;;;;;;;;;;;;;;2196860;67;3129;-22
2023/04/29 03:10:23;;;;;;;;;;;;;;;;;;2196809;66;2706;-22
2023/04/29 03:12:53;;;;;;;;;;;;;;;;;;2196705;67;3175;-22
2023/04/29 03:15:24;;;;;;;;;;;;;;;;;;2207602;67;3455;-22
2023/04/29 03:17:54;;;;;;;;;;;;;;;;;;2196083;67;2898;-22
2023/04/29 03:20:24;;;;;;;;;;;;;;;;;;2209048;59;2102;-22
2023/04/29 03:22:55;;;;;;;;;;;;;;;;;;2196341;66;2831;-22
2023/04/29 03:25:25;;;;;;;;;;;;;;;;;;2207853;59;2106;-22
2023/04/29 03:27:56;;;;;;;;;;;;;;;;;;2197369;67;3082;-22
2023/04/29 03:30:26;;;;;;;;;;;;;;;;;;2210141;67;2878;-23
2023/04/29 03:32:56;;;;;;;;;;;;;;;;;;2208808;59;2891;-22
2023/04/29 03:35:26;;;;;;;;;;;;;;;;;;2197313;66;2788;-22
2023/04/29 03:37:56;;;;;;;;;;;;;;;;;;2196752;67;2676;-22
2023/04/29 03:40:27;;;;;;;;;;;;;;;;;;2196517;66;2848;-22
2023/04/29 03:42:57;;;;;;;;;;;;;;;;;;2196721;67;2315;-22
2023/04/29 03:45:27;;;;;;;;;;;;;;;;;;2196872;67;2664;-22
2023/04/29 03:47:57;;;;;;;;;;;;;;;;;;2208210;66;2958;-22
2023/04/29 03:50:28;;;;;;;;;;;;;;;;;;2196974;67;2993;-23
2023/04/29 03:53:01;;;;;;;;;;;;;;;;;;2196680;59;3044;-22
2023/04/29 03:55:31;;;;;;;;;;;;;;;;;;2197064;59;2103;-22
2023/04/29 03:58:01;;;;;;;;;;;;;;;;;;2208322;67;2959;-22
2023/04/29 04:00:32;;;;;;;;;;;;;;;;;;2197038;67;2921;-22
2023/04/29 04:03:02;;;;;;;;;;;;;;;;;;2196648;59;2983;-22
2023/04/29 04:05:32;;;;;;;;;;;;;;;;;;2196347;66;2421;-22
2023/04/29 04:08:02;;;;;;;;;;;;;;;;;;2207307;67;3169;-22
2023/04/29 04:10:33;;;;;;;;;;;;;;;;;;2197154;66;2766;-22
2023/04/29 04:13:03;;;;;;;;;;;;;;;;;;2196150;66;2563;-22
2023/04/29 04:15:33;;;;;;;;;;;;;;;;;;2195655;66;3398;-22
2023/04/29 04:18:04;;;;;;;;;;;;;;;;;;2195542;66;3238;-22
2023/04/29 04:20:37;;;;;;;;;;;;;;;;;;2208377;59;2954;-22
2023/04/29 04:23:07;;;;;;;;;;;;;;;;;;2196880;66;2873;-22
2023/04/29 04:25:43;;;;;;;;;;;;;;;;;;2209262;59;2686;-22
2023/04/29 04:28:14;;;;;;;;;;;;;;;;;;2197163;66;2720;-22
2023/04/29 04:30:45;;;;;;;;;;;;;;;;;;2206966;67;2797;-22
2023/04/29 04:33:15;;;;;;;;;;;;;;;;;;2196680;60;2960;-22
2023/04/29 04:35:45;;;;;;;;;;;;;;;;;;2209290;67;3021;-22
2023/04/29 04:38:18;;;;;;;;;;;;;;;;;;2197343;66;2181;-24
2023/04/29 04:40:49;;;;;;;;;;;;;;;;;;2197476;67;1957;-22
2023/04/29 04:43:19;;;;;;;;;;;;;;;;;;2197535;66;3098;-23
2023/04/29 04:45:49;;;;;;;;;;;;;;;;;;2197926;66;2192;-24
2023/04/29 04:48:19;;;;;;;;;;;;;;;;;;2197344;66;1733;-24
2023/04/29 04:50:50;;;;;;;;;;;;;;;;;;2197304;66;2852;-23
2023/04/29 04:53:21;;;;;;;;;;;;;;;;;;2198168;59;2144;-23
2023/04/29 04:55:51;;;;;;;;;;;;;;;;;;2209183;59;2294;-24
2023/04/29 04:58:21;;;;;;;;;;;;;;;;;;2209327;59;2160;-24
2023/04/29 05:00:52;;;;;;;;;;;;;;;;;;2197601;59;2861;-24
2023/04/29 05:03:22;;;;;;;;;;;;;;;;;;2206022;59;2040;-24
2023/04/29 05:05:56;;;;;;;;;;;;;;;;;;2199612;66;2238;-24
2023/04/29 05:08:26;;;;;;;;;;;;;;;;;;2211870;67;1965;-24
2023/04/29 05:10:57;;;;;;;;;;;;;;;;;;2196852;66;2363;-24
2023/04/29 05:13:27;;;;;;;;;;;;;;;;;;2215122;54;2624;-21
2023/04/29 05:16:00;;;;;;;;;;;;;;;;;;2213317;58;3056;-21
2023/04/29 05:18:31;;;;;;;;;;;;;;;;;;2217192;58;3165;-21
2023/04/29 05:21:01;;;;;;;;;;;;;;;;;;2213049;59;2331;-21
2023/04/29 05:23:31;;;;;;;;;;;;;;;;;;2219749;58;1977;-21
2023/04/29 05:26:01;;;;;;;;;;;;;;;;;;2218698;58;2286;-21
2023/04/29 05:28:31;;;;;;;;;;;;;;;;;;2219344;58;2269;-22
2023/04/29 05:31:02;;;;;;;;;;;;;;;;;;2218934;66;3016;-22
2023/04/29 05:33:32;;;;;;;;;;;;;;;;;;2218587;58;2001;-22
2023/04/29 05:36:02;;;;;;;;;;;;;;;;;;2219852;59;2497;-22
2023/04/29 05:38:32;;;;;;;;;;;;;;;;;;2216848;66;1802;-22
2023/04/29 05:41:03;;;;;;;;;;;;;;;;;;2219155;59;3002;-22
2023/04/29 05:43:33;;;;;;;;;;;;;;;;;;2218510;66;2100;-22
2023/04/29 05:46:03;;;;;;;;;;;;;;;;;;2215926;66;2120;-22
2023/04/29 05:48:33;;;;;;;;;;;;;;;;;;2220214;66;1965;-22
2023/04/29 05:51:04;;;;;;;;;;;;;;;;;;2218389;66;3673;-22
2023/04/29 05:53:35;;;;;;;;;;;;;;;;;;2216129;58;1815;-22
2023/04/29 05:56:07;;;;;;;;;;;;;;;;;;2218155;58;3504;-22
2023/04/29 05:58:37;;;;;;;;;;;;;;;;;;2219083;66;2889;-23
2023/04/29 06:01:07;;;;;;;;;;;;;;;;;;2219890;58;2303;-22
2023/04/29 06:03:40;;;;;;;;;;;;;;;;;;2217337;58;3406;-22
2023/04/29 06:06:11;;;;;;;;;;;;;;;;;;2217861;66;2289;-22
2023/04/29 06:08:41;;;;;;;;;;;;;;;;;;2212364;59;2214;-22
2023/04/29 06:11:12;;;;;;;;;;;;;;;;;;2218686;58;2426;-22
2023/04/29 06:13:42;;;;;;;;;;;;;;;;;;2220492;60;2065;-22
2023/04/29 06:16:12;;;;;;;;;;;;;;;;;;2218371;66;2561;-23
2023/04/29 06:18:49;;;;;;;;;;;;;;;;;;2219691;58;2637;-22
2023/04/29 06:21:19;;;;;;;;;;;;;;;;;;2216429;59;2290;-22
2023/04/29 06:23:49;;;;;;;;;;;;;;;;;;2220740;66;2259;-22
2023/04/29 06:26:20;;;;;;;;;;;;;;;;;;2219509;58;2047;-22
2023/04/29 06:28:53;;;;;;;;;;;;;;;;;;2219411;66;2492;-22
2023/04/29 06:31:23;;;;;;;;;;;;;;;;;;2218788;63;1710;-22
2023/04/29 06:33:54;;;;;;;;;;;;;;;;;;2219957;58;2556;-22
2023/04/29 06:36:26;;;;;;;;;;;;;;;;;;2216755;63;1836;-22
2023/04/29 06:38:56;;;;;;;;;;;;;;;;;;2218698;66;2712;-22
2023/04/29 06:41:27;;;;;;;;;;;;;;;;;;2217289;66;2238;-22
2023/04/29 06:43:59;;;;;;;;;;;;;;;;;;2219425;58;3115;-22
2023/04/29 06:46:30;;;;;;;;;;;;;;;;;;2218610;58;2253;-22
2023/04/29 06:49:00;;;;;;;;;;;;;;;;;;2218762;66;2804;-23
2023/04/29 06:51:31;;;;;;;;;;;;;;;;;;2219015;58;2078;-22
2023/04/29 06:54:01;;;;;;;;;;;;;;;;;;2219118;58;2753;-23
2023/04/29 06:56:31;;;;;;;;;;;;;;;;;;2217001;58;2032;-23
2023/04/29 06:59:03;;;;;;;;;;;;;;;;;;2217634;66;3099;-23
2023/04/29 07:01:33;;;;;;;;;;;;;;;;;;2219646;58;1925;-23
2023/04/29 07:04:04;;;;;;;;;;;;;;;;;;2217885;58;2040;-23
2023/04/29 07:06:34;;;;;;;;;;;;;;;;;;2216643;58;3295;-23
2023/04/29 07:09:04;;;;;;;;;;;;;;;;;;2216133;58;2307;-23
2023/04/29 07:11:35;;;;;;;;;;;;;;;;;;2218251;58;2047;-23
2023/04/29 07:14:06;;;;;;;;;;;;;;;;;;2217588;58;2086;-23
2023/04/29 07:16:36;;;;;;;;;;;;;;;;;;2218416;66;2223;-23
2023/04/29 07:19:06;;;;;;;;;;;;;;;;;;2218110;58;2694;-23
2023/04/29 07:21:37;;;;;;;;;;;;;;;;;;2215944;59;2018;-23
2023/04/29 07:24:07;;;;;;;;;;;;;;;;;;2217904;58;2413;-23
2023/04/29 07:26:37;;;;;;;;;;;;;;;;;;2219456;58;1998;-23
2023/04/29 07:29:07;;;;;;;;;;;;;;;;;;2218318;66;2034;-23
2023/04/29 07:31:37;;;;;;;;;;;;;;;;;;2218019;58;2656;-23
2023/04/29 07:34:08;;;;;;;;;;;;;;;;;;2218259;59;2039;-23
2023/04/29 07:36:38;;;;;;;;;;;;;;;;;;2216402;58;2933;-23
2023/04/29 07:39:11;;;;;;;;;;;;;;;;;;2211563;58;2398;-23
2023/04/29 07:41:41;;;;;;;;;;;;;;;;;;2217361;66;1936;-20
2023/04/29 07:44:11;;;;;;;;;;;;;;;;;;2217435;59;2181;-21
2023/04/29 07:46:41;;;;;;;;;;;;;;;;;;2219413;58;2251;-21
2023/04/29 07:49:12;;;;;;;;;;;;;;;;;;2218920;59;2065;-21
2023/04/29 07:51:42;;;;;;;;;;;;;;;;;;2217558;58;1999;-21
2023/04/29 07:54:14;;;;;;;;;;;;;;;;;;2216928;58;2491;-21
2023/04/29 07:56:45;;;;;;;;;;;;;;;;;;2218330;58;2670;-21
2023/04/29 07:59:15;;;;;;;;;;;;;;;;;;2215966;66;2100;-21
2023/04/29 08:01:45;;;;;;;;;;;;;;;;;;2218065;58;2039;-21
2023/04/29 08:04:16;;;;;;;;;;;;;;;;;;2219568;58;2073;-21
2023/04/29 08:06:49;;;;;;;;;;;;;;;;;;2216768;66;1960;-21
2023/04/29 08:09:20;;;;;;;;;;;;;;;;;;2218895;58;2273;-21
2023/04/29 08:11:50;;;;;;;;;;;;;;;;;;2218199;66;1784;-21
2023/04/29 08:14:23;;;;;;;;;;;;;;;;;;2219665;58;3090;-21
2023/04/29 08:16:54;;;;;;;;;;;;;;;;;;2218506;66;1965;-21
2023/04/29 08:19:24;;;;;;;;;;;;;;;;;;2217543;58;2844;-21
2023/04/29 08:21:55;;;;;;;;;;;;;;;;;;2217044;58;3090;-21
2023/04/29 08:24:25;;;;;;;;;;;;;;;;;;2216963;66;2125;-21
2023/04/29 08:26:55;;;;;;;;;;;;;;;;;;2220563;58;2727;-21
2023/04/29 08:29:25;;;;;;;;;;;;;;;;;;2218244;66;2142;-21
2023/04/29 08:31:56;;;;;;;;;;;;;;;;;;2219300;66;2064;-21
2023/04/29 08:34:26;;;;;;;;;;;;;;;;;;2217175;59;2071;-21
2023/04/29 08:36:57;;;;;;;;;;;;;;;;;;2218707;58;2863;-21
2023/04/29 08:39:33;;;;;;;;;;;;;;;;;;2218438;66;1946;-20
2023/04/29 08:42:07;;;;;;;;;;;;;;;;;;2218406;66;2504;-19
2023/04/29 08:44:39;;;;;;;;;;;;;;;;;;2220044;66;1819;-21
2023/04/29 08:47:10;;;;;;;;;;;;;;;;;;2214782;66;3284;-21
2023/04/29 08:49:40;;;;;;;;;;;;;;;;;;2219188;58;2087;-21
2023/04/29 08:52:11;;;;;;;;;;;;;;;;;;2218067;58;3054;-21
2023/04/29 08:54:41;;;;;;;;;;;;;;;;;;2219611;58;2468;-21
2023/04/29 08:57:12;;;;;;;;;;;;;;;;;;2218231;59;1997;-21
2023/04/29 08:59:42;;;;;;;;;;;;;;;;;;2218852;66;3005;-21
2023/04/29 09:02:16;;;;;;;;;;;;;;;;;;2218443;58;2321;-21
2023/04/29 09:04:51;;;;;;;;;;;;;;;;;;2218805;58;1996;-21
2023/04/29 09:07:22;;;;;;;;;;;;;;;;;;2218853;66;2535;-21
2023/04/29 09:09:53;;;;;;;;;;;;;;;;;;2220185;66;2291;-21
2023/04/29 09:12:24;;;;;;;;;;;;;;;;;;2220523;59;2877;-21
2023/04/29 09:14:55;;;;;;;;;;;;;;;;;;2216894;59;2848;-21
2023/04/29 09:17:45;;;;;;;;;;;;;;;;;;2216715;59;2053;-21
2023/04/29 09:20:21;;;;;;;;;;;;;;;;;;2218112;58;2914;-22
2023/04/29 09:22:52;;;;;;;;;;;;;;;;;;2219538;66;2655;-21
2023/04/29 09:25:22;;;;;;;;;;;;;;;;;;2217019;58;2940;-21
2023/04/29 09:27:53;;;;;;;;;;;;;;;;;;2219828;66;2596;-21
2023/04/29 09:30:24;;;;;;;;;;;;;;;;;;2219523;66;3003;-21
2023/04/29 09:33:08;;;;;;;;;;;;;;;;;;2219032;59;2790;-21
2023/04/29 09:35:39;;;;;;;;;;;;;;;;;;2218234;66;1814;-21
2023/04/29 09:38:13;;;;;;;;;;;;;;;;;;2218742;66;2541;-21
2023/04/29 09:40:44;;;;;;;;;;;;;;;;;;2217384;66;1940;-21
2023/04/29 09:43:15;;;;;;;;;;;;;;;;;;2218561;58;2964;-20
2023/04/29 09:45:46;;;;;;;;;;;;;;;;;;2218809;58;2831;-20
2023/04/29 09:48:17;;;;;;;;;;;;;;;;;;2218641;59;2679;-20
2023/04/29 09:51:00;;;;;;;;;;;;;;;;;;2220042;59;2149;-19
2023/04/29 09:53:30;;;;;;;;;;;;;;;;;;2219243;58;1991;-20
2023/04/29 09:56:01;;;;;;;;;;;;;;;;;;2217160;58;2314;-19
2023/04/29 09:58:39;;;;;;;;;;;;;;;;;;2215191;58;1697;-20
2023/04/29 10:01:12;;;;;;;;;;;;;;;;;;2218585;58;1949;-19
2023/04/29 10:03:42;;;;;;;;;;;;;;;;;;2220368;58;2499;-19
2023/04/29 10:06:13;;;;;;;;;;;;;;;;;;2218656;66;2120;-19
2023/04/29 10:08:45;;;;;;;;;;;;;;;;;;2217018;58;2099;-19
2023/04/29 10:11:16;;;;;;;;;;;;;;;;;;2219353;59;2425;-20
2023/04/29 10:13:51;;;;;;;;;;;;;;;;;;2219602;58;1979;-20
2023/04/29 10:16:31;;;;;;;;;;;;;;;;;;2216450;66;2303;-20
2023/04/29 10:19:06;;;;;;;;;;;;;;;;;;2219906;58;2926;-20
2023/04/29 10:21:37;;;;;;;;;;;;;;;;;;2218544;58;2727;-20
2023/04/29 10:24:09;;;;;;;;;;;;;;;;;;2217128;58;2338;-20
2023/04/29 10:26:40;;;;;;;;;;;;;;;;;;2218616;58;2361;-20
2023/04/29 10:29:12;;;;;;;;;;;;;;;;;;2219344;58;2064;-19
2023/04/29 10:31:43;;;;;;;;;;;;;;;;;;2220047;66;2014;-20
2023/04/29 10:34:15;;;;;;;;;;;;;;;;;;2219580;58;1727;-20
2023/04/29 10:36:45;;;;;;;;;;;;;;;;;;2220132;58;1993;-20
2023/04/29 10:39:22;;;;;;;;;;;;;;;;;;2218903;66;2925;-20
2023/04/29 10:41:53;;;;;;;;;;;;;;;;;;2220106;66;2844;-20
2023/04/29 10:44:23;;;;;;;;;;;;;;;;;;2218810;58;1872;-20
2023/04/29 10:47:12;;;;;;;;;;;;;;;;;;2220636;66;2395;-20
2023/04/29 10:50:00;;;;;;;;;;;;;;;;;;2218509;58;2087;-20
2023/04/29 10:52:49;;;;;;;;;;;;;;;;;;2219674;58;2079;-20
2023/04/29 10:55:21;;;;;;;;;;;;;;;;;;2216166;58;2057;-20
2023/04/29 10:57:52;;;;;;;;;;;;;;;;;;2220482;66;2832;-21
2023/04/29 11:00:26;;;;;;;;;;;;;;;;;;2219894;59;2719;-21
2023/04/29 11:02:57;;;;;;;;;;;;;;;;;;2220132;58;2493;-21
2023/04/29 11:05:35;;;;;;;;;;;;;;;;;;2219280;66;2450;-21
2023/04/29 11:08:08;;;;;;;;;;;;;;;;;;2217876;66;3103;-21
2023/04/29 11:10:41;;;;;;;;;;;;;;;;;;2217549;66;2000;-21
2023/04/29 11:13:25;;;;;;;;;;;;;;;;;;2218950;59;1993;-21
2023/04/29 11:16:09;;;;;;;;;;;;;;;;;;2223247;53;1945;-23
2023/04/29 11:18:58;;;;;;;;;;;;;;;;;;2219184;59;2906;-23
2023/04/29 11:21:29;;;;;;;;;;;;;;;;;;2216383;58;3282;-23
2023/04/29 11:24:01;;;;;;;;;;;;;;;;;;2218978;66;3202;-23
2023/04/29 11:26:33;;;;;;;;;;;;;;;;;;2216988;58;2996;-23
2023/04/29 11:29:09;;;;;;;;;;;;;;;;;;2219383;66;2921;-23
2023/04/29 11:31:39;;;;;;;;;;;;;;;;;;2213599;59;2023;-23
2023/04/29 11:34:10;;;;;;;;;;;;;;;;;;2219663;58;2614;-23
2023/04/29 11:36:40;;;;;;;;;;;;;;;;;;2217851;58;2510;-23
2023/04/29 11:39:11;;;;;;;;;;;;;;;;;;2219491;59;2673;-23
2023/04/29 11:41:41;;;;;;;;;;;;;;;;;;2220478;59;2634;-23
2023/04/29 11:44:11;;;;;;;;;;;;;;;;;;2218607;66;2850;-23
2023/04/29 11:46:41;;;;;;;;;;;;;;;;;;2220143;60;2992;-23
2023/04/29 11:49:12;;;;;;;;;;;;;;;;;;2220165;66;2907;-23
2023/04/29 11:51:42;;;;;;;;;;;;;;;;;;2220503;58;2780;-23
2023/04/29 11:54:12;;;;;;;;;;;;;;;;;;2218208;58;1722;-23
2023/04/29 11:56:42;;;;;;;;;;;;;;;;;;2217255;58;1803;-23
2023/04/29 11:59:13;;;;;;;;;;;;;;;;;;2218525;58;2811;-23
2023/04/29 12:01:43;;;;;;;;;;;;;;;;;;2220835;58;2099;-23
2023/04/29 12:04:13;;;;;;;;;;;;;;;;;;2217312;58;2585;-23
2023/04/29 12:06:44;;;;;;;;;;;;;;;;;;2218996;58;3184;-23
2023/04/29 12:09:15;;;;;;;;;;;;;;;;;;2219087;58;2997;-23
2023/04/29 12:11:45;;;;;;;;;;;;;;;;;;2220313;59;2623;-23
2023/04/29 12:14:16;;;;;;;;;;;;;;;;;;2219558;58;2574;-23
2023/04/29 12:16:47;;;;;;;;;;;;;;;;;;2220431;58;2196;-23
2023/04/29 12:19:17;;;;;;;;;;;;;;;;;;2216174;59;2755;-23
2023/04/29 12:21:48;;;;;;;;;;;;;;;;;;2217562;58;3056;-23
2023/04/29 12:24:20;;;;;;;;;;;;;;;;;;2218856;66;3121;-23
2023/04/29 12:26:51;;;;;;;;;;;;;;;;;;2215654;58;3428;-23
2023/04/29 12:29:24;;;;;;;;;;;;;;;;;;2211747;58;3329;-23
2023/04/29 12:31:57;;;;;;;;;;;;;;;;;;2218244;66;2123;-23
2023/04/29 12:34:28;;;;;;;;;;;;;;;;;;2217078;58;2379;-23
2023/04/29 12:36:59;;;;;;;;;;;;;;;;;;2220746;59;3104;-23
2023/04/29 12:39:29;;;;;;;;;;;;;;;;;;2219608;58;3108;-23
2023/04/29 12:42:02;;;;;;;;;;;;;;;;;;2218353;66;2964;-23
2023/04/29 12:44:39;;;;;;;;;;;;;;;;;;2220259;66;3095;-23
2023/04/29 12:47:10;;;;;;;;;;;;;;;;;;2219624;58;2024;-23
2023/04/29 12:49:41;;;;;;;;;;;;;;;;;;2217216;58;3043;-23
2023/04/29 12:52:12;;;;;;;;;;;;;;;;;;2218568;58;3028;-23
2023/04/29 12:54:45;;;;;;;;;;;;;;;;;;2217814;58;3010;-23
2023/04/29 12:57:16;;;;;;;;;;;;;;;;;;2217189;66;3357;-23
2023/04/29 12:59:46;;;;;;;;;;;;;;;;;;2216525;66;2463;-23
2023/04/29 13:02:16;;;;;;;;;;;;;;;;;;2220589;58;2001;-23
2023/04/29 13:04:46;;;;;;;;;;;;;;;;;;2219982;58;3269;-23
2023/04/29 13:07:17;;;;;;;;;;;;;;;;;;2212080;58;3239;-23
2023/04/29 13:09:47;;;;;;;;;;;;;;;;;;2215442;58;2194;-23
2023/04/29 13:12:18;;;;;;;;;;;;;;;;;;2216713;58;2423;-23
2023/04/29 13:14:48;;;;;;;;;;;;;;;;;;2216645;58;2582;-23
2023/04/29 13:17:18;;;;;;;;;;;;;;;;;;2216886;58;2873;-23
2023/04/29 13:19:49;;;;;;;;;;;;;;;;;;2216923;66;2746;-23
2023/04/29 13:22:20;;;;;;;;;;;;;;;;;;2220178;58;2904;-23
2023/04/29 13:24:50;;;;;;;;;;;;;;;;;;2219847;58;2702;-23
2023/04/29 13:27:21;;;;;;;;;;;;;;;;;;2213602;58;2240;-23
2023/04/29 13:29:51;;;;;;;;;;;;;;;;;;2220603;66;2085;-23
2023/04/29 13:32:24;;;;;;;;;;;;;;;;;;2216388;58;3346;-23
2023/04/29 13:34:55;;;;;;;;;;;;;;;;;;2221488;58;2934;-23
2023/04/29 13:37:25;;;;;;;;;;;;;;;;;;2219737;58;2060;-23
2023/04/29 13:39:55;;;;;;;;;;;;;;;;;;2219218;66;2172;-22
2023/04/29 13:42:26;;;;;;;;;;;;;;;;;;2220563;66;2344;-22
2023/04/29 13:44:56;;;;;;;;;;;;;;;;;;2219329;66;2550;-22
2023/04/29 13:47:29;;;;;;;;;;;;;;;;;;2217351;58;2364;-24
2023/04/29 13:50:03;;;;;;;;;;;;;;;;;;2216772;59;3268;-24
2023/04/29 13:52:33;;;;;;;;;;;;;;;;;;2218823;58;4027;-22
2023/04/29 13:55:03;;;;;;;;;;;;;;;;;;2215774;58;2556;-22
2023/04/29 14:01:23;;;;;;;;;;;;;;;;;;2218425;58;2412;-24
2023/04/29 14:03:53;;;;;;;;;;;;;;;;;;2214898;58;2925;-22
2023/04/29 14:06:23;;;;;;;;;;;;;;;;;;2219072;58;2337;-24
2023/04/29 14:08:53;;;;;;;;;;;;;;;;;;2217622;66;2168;-24
2023/04/29 14:11:23;;;;;;;;;;;;;;;;;;2218138;59;2704;-24
2023/04/29 14:13:54;;;;;;;;;;;;;;;;;;2220007;58;2103;-24
2023/04/29 14:16:24;;;;;;;;;;;;;;;;;;2219936;58;2584;-23
2023/04/29 14:18:55;;;;;;;;;;;;;;;;;;2217243;58;3215;-24
2023/04/29 14:21:26;;;;;;;;;;;;;;;;;;2220043;59;2825;-23
2023/04/29 14:23:56;;;;;;;;;;;;;;;;;;2220066;59;2896;-23
2023/04/29 14:26:29;;;;;;;;;;;;;;;;;;2218857;58;3266;-23
2023/04/29 14:29:00;;;;;;;;;;;;;;;;;;2218957;66;2906;-23
2023/04/29 14:31:33;;;;;;;;;;;;;;;;;;2220585;66;3130;-23
2023/04/29 14:34:04;;;;;;;;;;;;;;;;;;2218717;58;2521;-23
2023/04/29 14:36:34;;;;;;;;;;;;;;;;;;2217363;59;2997;-23
2023/04/29 14:39:04;;;;;;;;;;;;;;;;;;2220127;58;2181;-23
2023/04/29 14:41:35;;;;;;;;;;;;;;;;;;2219728;66;2908;-23
2023/04/29 14:44:05;;;;;;;;;;;;;;;;;;2219867;58;1980;-23
2023/04/29 14:46:35;;;;;;;;;;;;;;;;;;2220165;66;4415;-23
2023/04/29 14:49:05;;;;;;;;;;;;;;;;;;2220620;58;2174;-23
2023/04/29 14:51:36;;;;;;;;;;;;;;;;;;2216517;66;2781;-23
2023/04/29 14:54:06;;;;;;;;;;;;;;;;;;2216830;58;1780;-23
2023/04/29 14:56:36;;;;;;;;;;;;;;;;;;2218332;59;1684;-23
2023/04/29 14:59:07;;;;;;;;;;;;;;;;;;2220024;66;2761;-23
2023/04/29 15:01:38;;;;;;;;;;;;;;;;;;2219536;58;2753;-23
2023/04/29 15:04:08;;;;;;;;;;;;;;;;;;2216326;58;2248;-23
2023/04/29 15:06:39;;;;;;;;;;;;;;;;;;2219419;66;2122;-23
2023/04/29 15:09:09;;;;;;;;;;;;;;;;;;2218554;58;2710;-23
2023/04/29 15:11:40;;;;;;;;;;;;;;;;;;2219409;66;2091;-23
2023/04/29 15:14:10;;;;;;;;;;;;;;;;;;2219247;58;2434;-23
2023/04/29 15:16:40;;;;;;;;;;;;;;;;;;2217031;58;2683;-23
2023/04/29 15:19:10;;;;;;;;;;;;;;;;;;2220007;66;2194;-23
2023/04/29 15:21:41;;;;;;;;;;;;;;;;;;2222179;58;2200;-23
2023/04/29 15:24:11;;;;;;;;;;;;;;;;;;2216170;66;2113;-23
2023/04/29 15:26:41;;;;;;;;;;;;;;;;;;2218367;58;2721;-23
2023/04/29 15:29:11;;;;;;;;;;;;;;;;;;2218414;58;3595;-23
2023/04/29 15:31:42;;;;;;;;;;;;;;;;;;2219488;66;3096;-23
2023/04/29 15:34:12;;;;;;;;;;;;;;;;;;2220548;58;2853;-23
2023/04/29 15:36:42;;;;;;;;;;;;;;;;;;2220433;66;2112;-23
2023/04/29 15:39:12;;;;;;;;;;;;;;;;;;2219410;66;2054;-23
2023/04/29 15:41:43;;;;;;;;;;;;;;;;;;2218779;66;2197;-23
2023/04/29 15:44:13;;;;;;;;;;;;;;;;;;2219591;66;3544;-23
2023/04/29 15:46:43;;;;;;;;;;;;;;;;;;2221213;58;2075;-23
2023/04/29 15:49:13;;;;;;;;;;;;;;;;;;2219773;59;2956;-23
2023/04/29 15:51:43;;;;;;;;;;;;;;;;;;2220911;58;2035;-23
2023/04/29 15:54:14;;;;;;;;;;;;;;;;;;2219756;58;2342;-23
2023/04/29 15:56:48;;;;;;;;;;;;;;;;;;2219819;58;2210;-23
2023/04/29 15:59:18;;;;;;;;;;;;;;;;;;2215200;66;2591;-23
2023/04/29 16:01:48;;;;;;;;;;;;;;;;;;2219010;58;2934;-23
2023/04/29 16:04:21;;;;;;;;;;;;;;;;;;2218743;58;2827;-23
2023/04/29 16:06:52;;;;;;;;;;;;;;;;;;2216255;66;2722;-23
2023/04/29 16:09:22;;;;;;;;;;;;;;;;;;2219979;58;2717;-23
2023/04/29 16:11:52;;;;;;;;;;;;;;;;;;2219167;66;3293;-23
2023/04/29 16:14:23;;;;;;;;;;;;;;;;;;2216022;58;3008;-23
2023/04/29 16:16:53;;;;;;;;;;;;;;;;;;2219457;66;2939;-23
2023/04/29 16:19:23;;;;;;;;;;;;;;;;;;2219689;66;2921;-23
2023/04/29 16:21:54;;;;;;;;;;;;;;;;;;2220404;58;2281;-23
2023/04/29 16:24:24;;;;;;;;;;;;;;;;;;2219130;66;2767;-23
2023/04/29 16:26:55;;;;;;;;;;;;;;;;;;2216353;58;3140;-24
2023/04/29 16:29:25;;;;;;;;;;;;;;;;;;2219242;66;3182;-24
2023/04/29 16:31:56;;;;;;;;;;;;;;;;;;2218789;66;2601;-24
2023/04/29 16:34:26;;;;;;;;;;;;;;;;;;2218659;58;3195;-24
2023/04/29 16:36:56;;;;;;;;;;;;;;;;;;2219072;66;2711;-23
2023/04/29 16:39:26;;;;;;;;;;;;;;;;;;2219092;66;2727;-23
2023/04/29 16:41:58;;;;;;;;;;;;;;;;;;2218682;66;2713;-23
2023/04/29 16:44:28;;;;;;;;;;;;;;;;;;2219991;59;2525;-23
2023/04/29 16:46:58;;;;;;;;;;;;;;;;;;2219886;65;1987;-23
2023/04/29 16:49:29;;;;;;;;;;;;;;;;;;2219137;66;2726;-23
2023/04/29 16:51:59;;;;;;;;;;;;;;;;;;2219908;58;1862;-23
2023/04/29 16:54:30;;;;;;;;;;;;;;;;;;2219229;66;1955;-23
2023/04/29 16:57:01;;;;;;;;;;;;;;;;;;2218914;66;2753;-23
2023/04/29 16:59:31;;;;;;;;;;;;;;;;;;2220581;66;1989;-23
2023/04/29 17:02:04;;;;;;;;;;;;;;;;;;2219318;58;2365;-23
2023/04/29 17:04:34;;;;;;;;;;;;;;;;;;2218612;58;2738;-23
2023/04/29 17:07:05;;;;;;;;;;;;;;;;;;2217451;58;3011;-23
2023/04/29 17:09:35;;;;;;;;;;;;;;;;;;2219518;58;2732;-23
2023/04/29 17:12:05;;;;;;;;;;;;;;;;;;2219418;58;2858;-23
2023/04/29 17:14:36;;;;;;;;;;;;;;;;;;2220276;58;2821;-23
2023/04/29 17:17:06;;;;;;;;;;;;;;;;;;2214314;58;2599;-18
2023/04/29 17:19:36;;;;;;;;;;;;;;;;;;2203515;66;2381;-18
2023/04/29 17:22:06;;;;;;;;;;;;;;;;;;2214698;58;1909;-18
2023/04/29 17:24:37;;;;;;;;;;;;;;;;;;2204486;66;2680;-18
2023/04/29 17:27:07;;;;;;;;;;;;;;;;;;2214481;58;2691;-18
2023/04/29 17:29:38;;;;;;;;;;;;;;;;;;2201004;59;2820;-19
2023/04/29 17:32:10;;;;;;;;;;;;;;;;;;2211653;67;3064;-18
2023/04/29 17:34:40;;;;;;;;;;;;;;;;;;2200173;59;2548;-19